Time;durP1;ratioP1;P1;durP2;ratioP2;P2;SDS_P1;SDS_P2;PMS_P1;PMS_P2;Temp;Humidity;BMP_temperature;BMP_pressure;BME280_temperature;BME280_humidity;BME280_pressure;Samples;Min_cycle;Max_cycle;Signal;HPM_P1;HPM_P2
2023/07/24 00:02:23;;;;;;;3.22;2.28;;;21.10;81.90;;;;;;5030206;28;20136;-40
2023/07/24 00:04:49;;;;;;;2.58;2.00;;;20.90;74.10;;;;;;5031388;28;20466;-40
2023/07/24 00:07:16;;;;;;;3.25;2.10;;;21.00;81.40;;;;;;5031064;28;20084;-38
2023/07/24 00:09:44;;;;;;;3.72;2.60;;;21.30;82.00;;;;;;5031386;28;20164;-40
2023/07/24 00:12:11;;;;;;;3.38;2.60;;;22.20;82.00;;;;;;5031097;28;20056;-39
2023/07/24 00:14:38;;;;;;;2.75;2.17;;;;;;;;;;5031283;28;20072;-39
2023/07/24 00:17:05;;;;;;;3.88;2.22;;;21.20;82.00;;;;;;5029439;28;20045;-41
2023/07/24 00:19:32;;;;;;;2.60;2.17;;;21.40;75.30;;;;;;5030588;28;20053;-40
2023/07/24 00:21:59;;;;;;;3.08;2.20;;;;;;;;;;5030924;28;20132;-40
2023/07/24 00:24:26;;;;;;;3.75;2.22;;;;;;;;;;5030567;28;20132;-37
2023/07/24 00:26:54;;;;;;;3.20;2.40;;;21.40;81.70;;;;;;5030772;28;20059;-41
2023/07/24 00:29:21;;;;;;;2.58;2.22;;;21.20;81.90;;;;;;5030880;28;20077;-41
2023/07/24 00:31:47;;;;;;;2.67;2.28;;;20.90;81.70;;;;;;5030933;28;20148;-39
2023/07/24 00:34:14;;;;;;;3.40;2.50;;;;;;;;;;5028844;28;20046;-36
2023/07/24 00:36:41;;;;;;;2.92;2.40;;;21.10;81.70;;;;;;5030097;28;20048;-41
2023/07/24 00:39:08;;;;;;;3.10;2.30;;;21.30;82.10;;;;;;5030577;28;20046;-40
2023/07/24 00:41:35;;;;;;;2.67;2.25;;;;;;;;;;5030492;28;20049;-39
2023/07/24 00:44:03;;;;;;;3.45;2.50;;;21.60;82.10;;;;;;5030447;28;20132;-41
2023/07/24 00:46:32;;;;;;;3.13;2.50;;;20.90;82.00;;;;;;5030418;28;20733;-40
2023/07/24 00:48:59;;;;;;;3.05;2.17;;;;;;;;;;5030330;28;20045;-40
2023/07/24 00:51:26;;;;;;;3.45;2.60;;;21.20;81.80;;;;;;5019159;28;20050;-40
2023/07/24 00:53:53;;;;;;;3.10;2.50;;;20.40;74.50;;;;;;5015539;28;20072;-39
2023/07/24 00:56:20;;;;;;;2.80;2.42;;;20.00;81.20;;;;;;5022295;28;20041;-40
2023/07/24 00:58:46;;;;;;;3.47;2.75;;;21.10;82.20;;;;;;5030275;28;20490;-40
2023/07/24 01:01:14;;;;;;;2.85;2.50;;;20.90;67.80;;;;;;5030375;28;20136;-38
2023/07/24 01:03:43;;;;;;;3.03;2.30;;;;;;;;;;5029988;28;20446;-39
2023/07/24 01:06:10;;;;;;;2.72;2.25;;;20.90;81.70;;;;;;5030471;28;20049;-40
2023/07/24 01:08:37;;;;;;;2.97;2.30;;;;;;;;;;5015047;28;20434;-34
2023/07/24 01:11:06;;;;;;;2.90;2.28;;;22.20;78.40;;;;;;5030142;28;20573;-40
2023/07/24 01:13:36;;;;;;;2.70;2.33;;;21.10;66.10;;;;;;5029977;28;20057;-36
2023/07/24 01:16:05;;;;;;;3.55;2.50;;;21.00;81.90;;;;;;5030120;28;20231;-36
2023/07/24 01:18:33;;;;;;;2.85;2.22;;;20.60;77.90;;;;;;5029946;28;20049;-37
2023/07/24 01:21:00;;;;;;;2.40;2.00;;;20.90;82.60;;;;;;5030089;28;20128;-40
2023/07/24 01:23:37;;;;;;;3.65;2.38;;;21.20;81.90;;;;;;5029685;28;20056;-40
2023/07/24 01:26:05;;;;;;;2.78;2.35;;;20.90;67.10;;;;;;5009958;28;20132;-39
2023/07/24 01:28:32;;;;;;;2.67;2.40;;;;;;;;;;5010075;28;20056;-39
2023/07/24 01:30:59;;;;;;;3.60;2.53;;;22.00;82.50;;;;;;5010426;28;20050;-38
2023/07/24 01:33:25;;;;;;;2.88;2.30;;;20.90;79.30;;;;;;5010017;28;20124;-40
2023/07/24 01:36:00;;;;;;;3.20;2.33;;;21.10;73.30;;;;;;5009410;28;20057;-40
2023/07/24 01:38:27;;;;;;;3.63;2.70;;;;;;;;;;5029691;28;20124;-41
2023/07/24 01:40:54;;;;;;;3.08;2.22;;;21.00;66.10;;;;;;5022290;28;20046;-36
2023/07/24 01:43:22;;;;;;;2.47;2.10;;;20.80;81.70;;;;;;5009919;28;20056;-41
2023/07/24 01:45:49;;;;;;;2.63;2.30;;;21.80;82.60;;;;;;5009884;28;20129;-40
2023/07/24 01:48:16;;;;;;;3.05;2.55;;;20.90;81.90;;;;;;5009906;28;20128;-41
2023/07/24 01:50:43;;;;;;;2.97;2.50;;;;;;;;;;5019667;28;20536;-39
2023/07/24 01:53:10;;;;;;;2.95;2.47;;;20.10;81.80;;;;;;5029463;28;20168;-41
2023/07/24 01:55:37;;;;;;;2.92;2.40;;;20.60;68.10;;;;;;5027924;28;20049;-38
2023/07/24 01:58:03;;;;;;;5.28;2.92;;;21.90;82.40;;;;;;5009983;28;20448;-40
2023/07/24 02:00:31;;;;;;;3.38;2.60;;;20.90;81.90;;;;;;5009630;28;20050;-40
2023/07/24 02:02:58;;;;;;;2.70;2.30;;;21.20;82.20;;;;;;5009838;28;20409;-41
2023/07/24 02:05:25;;;;;;;4.15;2.50;;;;;;;;;;5009622;28;20137;-36
2023/07/24 02:07:52;;;;;;;2.72;2.30;;;21.50;82.20;;;;;;5009623;28;20132;-40
2023/07/24 02:10:19;;;;;;;2.88;2.50;;;21.10;82.00;;;;;;5009521;28;20125;-41
2023/07/24 02:12:45;;;;;;;3.17;2.60;;;20.30;70.90;;;;;;5009463;28;20125;-37
2023/07/24 02:15:12;;;;;;;2.70;2.45;;;21.10;82.00;;;;;;5009390;28;20049;-40
2023/07/24 02:17:42;;;;;;;3.80;2.50;;;20.90;81.80;;;;;;5009670;28;20133;-40
2023/07/24 02:20:09;;;;;;;3.85;2.60;;;20.70;82.20;;;;;;5009362;28;20565;-41
2023/07/24 02:22:36;;;;;;;3.22;2.42;;;21.10;82.80;;;;;;5008943;28;20078;-40
2023/07/24 02:25:02;;;;;;;3.35;2.33;;;21.20;82.90;;;;;;5009308;28;20133;-41
2023/07/24 02:27:34;;;;;;;3.22;2.50;;;21.90;82.80;;;;;;5010568;28;20157;-41
2023/07/24 02:30:00;;;;;;;2.78;2.33;;;20.50;81.70;;;;;;5009723;28;20407;-38
2023/07/24 02:32:27;;;;;;;2.85;2.55;;;22.00;82.50;;;;;;5008946;28;20057;-40
2023/07/24 02:34:55;;;;;;;3.15;2.85;;;20.90;66.00;;;;;;5009421;28;20136;-38
2023/07/24 02:37:22;;;;;;;3.08;2.40;;;;;;;;;;5021259;28;20490;-36
2023/07/24 02:39:49;;;;;;;2.50;2.30;;;20.70;82.60;;;;;;5028739;28;20479;-40
2023/07/24 02:42:16;;;;;;;2.80;2.50;;;21.20;82.90;;;;;;5028728;28;20132;-41
2023/07/24 02:44:42;;;;;;;3.28;2.65;;;21.70;74.20;;;;;;5014704;28;20566;-38
2023/07/24 02:47:09;;;;;;;2.80;2.40;;;20.90;81.80;;;;;;5021842;28;20136;-41
2023/07/24 02:49:36;;;;;;;2.67;2.30;;;20.20;82.00;;;;;;5032309;28;20068;-40
2023/07/24 02:52:04;;;;;;;3.72;2.50;;;21.20;68.10;;;;;;5032250;28;20129;-39
2023/07/24 02:54:31;;;;;;;3.55;2.47;;;20.60;78.50;;;;;;5032063;28;20072;-41
2023/07/24 02:56:58;;;;;;;2.53;2.13;;;20.40;82.40;;;;;;5032175;28;20471;-39
2023/07/24 02:59:25;;;;;;;2.75;2.38;;;;;;;;;;5031537;28;20570;-35
2023/07/24 03:01:52;;;;;;;2.78;2.30;;;21.00;76.30;;;;;;5032170;28;20446;-39
2023/07/24 03:04:18;;;;;;;3.03;2.60;;;21.10;82.40;;;;;;5031940;28;20137;-40
2023/07/24 03:06:45;;;;;;;2.78;2.30;;;20.40;73.50;;;;;;5032010;28;20508;-40
2023/07/24 03:09:13;;;;;;;3.50;2.70;;;20.90;66.00;;;;;;5032100;28;20056;-40
2023/07/24 03:11:40;;;;;;;3.33;2.45;;;21.30;82.40;;;;;;5032017;28;20505;-40
2023/07/24 03:14:06;;;;;;;2.72;2.22;;;21.20;82.10;;;;;;5031924;28;20061;-39
2023/07/24 03:16:33;;;;;;;2.60;2.20;;;;;;;;;;5031681;28;20077;-39
2023/07/24 03:19:00;;;;;;;3.00;2.50;;;20.60;81.80;;;;;;5031705;28;20520;-40
2023/07/24 03:21:27;;;;;;;3.20;2.63;;;21.40;83.00;;;;;;5031862;28;20049;-41
2023/07/24 03:23:53;;;;;;;3.95;2.35;;;21.60;73.60;;;;;;5031729;28;20132;-37
2023/07/24 03:26:21;;;;;;;2.80;2.50;;;20.60;81.70;;;;;;5031939;28;20055;-39
2023/07/24 03:28:48;;;;;;;2.90;2.33;;;21.00;82.30;;;;;;5031586;28;20128;-40
2023/07/24 03:31:15;;;;;;;2.72;2.25;;;;;;;;;;5031718;28;20055;-40
2023/07/24 03:33:42;;;;;;;2.42;2.20;;;20.80;81.70;;;;;;5029523;28;20132;-39
2023/07/24 03:36:09;;;;;;;3.25;2.22;;;21.10;82.00;;;;;;5030983;28;20124;-39
2023/07/24 03:38:39;;;;;;;3.30;2.40;;;20.70;82.20;;;;;;5031268;28;20140;-41
2023/07/24 03:41:06;;;;;;;2.67;2.20;;;;;;;;;;5028342;28;20045;-35
2023/07/24 03:43:34;;;;;;;4.35;2.38;;;21.00;82.00;;;;;;5029904;28;20136;-38
2023/07/24 03:46:01;;;;;;;2.90;2.20;;;20.50;82.00;;;;;;5030287;28;20133;-38
2023/07/24 03:48:27;;;;;;;3.17;2.50;;;20.00;81.40;;;;;;5030298;28;20064;-38
2023/07/24 03:50:59;;;;;;;3.05;2.50;;;21.20;67.40;;;;;;5018665;28;20124;-37
2023/07/24 03:53:26;;;;;;;3.30;2.40;;;21.60;82.40;;;;;;5023557;28;20053;-40
2023/07/24 03:55:53;;;;;;;2.80;2.40;;;;;;;;;;5030302;28;20148;-37
2023/07/24 03:58:19;;;;;;;3.00;2.30;;;21.50;82.40;;;;;;5029770;28;20536;-39
2023/07/24 04:00:47;;;;;;;4.00;2.30;;;20.80;65.80;;;;;;5029529;28;20520;-32
2023/07/24 04:03:14;;;;;;;2.67;2.30;;;;;;;;;;5009911;28;20133;-36
2023/07/24 04:05:41;;;;;;;2.85;2.50;;;21.20;82.90;;;;;;5010020;28;20042;-38
2023/07/24 04:08:08;;;;;;;3.35;2.60;;;21.40;83.00;;;;;;5009825;28;20558;-40
2023/07/24 04:10:35;;;;;;;2.88;2.45;;;20.80;65.80;;;;;;5010323;28;20125;-36
2023/07/24 04:13:01;;;;;;;3.35;2.20;;;20.40;82.40;;;;;;5009564;28;20068;-40
2023/07/24 04:15:28;;;;;;;2.42;2.22;;;20.70;81.80;;;;;;5008502;28;20057;-43
2023/07/24 04:17:56;;;;;;;2.63;2.08;;;20.80;65.80;;;;;;5009856;28;20046;-37
2023/07/24 04:20:24;;;;;;;3.00;2.22;;;;;;;;;;5020667;28;20124;-38
2023/07/24 04:22:50;;;;;;;2.97;2.38;;;21.30;82.20;;;;;;5019512;28;20052;-39
2023/07/24 04:25:17;;;;;;;3.38;2.60;;;;;;;;;;5014932;28;20414;-36
2023/07/24 04:27:44;;;;;;;3.10;2.45;;;21.70;82.30;;;;;;5018411;28;20129;-37
2023/07/24 04:30:11;;;;;;;3.00;2.40;;;20.60;81.70;;;;;;5019703;28;20630;-39
2023/07/24 04:32:38;;;;;;;2.60;2.17;;;20.80;80.40;;;;;;5020205;28;20050;-39
2023/07/24 04:35:07;;;;;;;3.20;2.45;;;21.20;66.10;;;;;;5009991;28;20137;-36
2023/07/24 04:37:34;;;;;;;4.00;2.40;;;20.10;81.40;;;;;;5017738;28;20133;-37
2023/07/24 04:40:01;;;;;;;3.42;2.65;;;21.20;82.10;;;;;;4985379;28;1040291;-40
2023/07/24 04:42:28;;;;;;;2.88;2.25;;;;;;;;;;5020176;28;20136;-34
2023/07/24 04:44:55;;;;;;;2.92;2.10;;;20.70;81.90;;;;;;5019739;28;20132;-39
2023/07/24 04:47:21;;;;;;;2.40;2.20;;;21.00;82.10;;;;;;5020219;28;20124;-37
2023/07/24 04:49:48;;;;;;;2.58;2.38;;;20.80;68.40;;;;;;5021116;28;20136;-34
2023/07/24 04:52:16;;;;;;;5.97;2.50;;;21.10;82.50;;;;;;5019221;28;20499;-37
2023/07/24 04:54:43;;;;;;;3.33;2.30;;;21.10;82.10;;;;;;5019906;28;20132;-36
2023/07/24 04:57:10;;;;;;;3.08;2.40;;;;;;;;;;5019529;28;20491;-38
2023/07/24 04:59:36;;;;;;;2.63;2.33;;;20.50;74.40;;;;;;5018024;28;20053;-39
2023/07/24 05:02:04;;;;;;;2.80;2.20;;;;;;;;;;5021553;28;20052;-31
2023/07/24 05:04:31;;;;;;;3.78;2.15;;;;;;;;;;5018874;28;20072;-37
2023/07/24 05:06:57;;;;;;;2.75;2.20;;;21.30;83.10;;;;;;5020379;28;20124;-38
2023/07/24 05:09:25;;;;;;;2.90;2.17;;;20.80;65.90;;;;;;5019327;28;20133;-40
2023/07/24 05:11:53;;;;;;;3.30;2.33;;;;;;;;;;5019319;28;20046;-35
2023/07/24 05:14:19;;;;;;;2.80;2.20;;;21.20;82.10;;;;;;5018571;28;20449;-40
2023/07/24 05:16:46;;;;;;;2.70;2.40;;;21.50;79.70;;;;;;5020863;28;20133;-41
2023/07/24 05:19:13;;;;;;;2.50;2.28;;;;;;;;;;5018821;28;20585;-38
2023/07/24 05:21:40;;;;;;;2.80;2.42;;;20.50;82.60;;;;;;5020032;28;20453;-39
2023/07/24 05:24:06;;;;;;;2.90;2.33;;;19.90;81.50;;;;;;5020669;28;20133;-39
2023/07/24 05:26:34;;;;;;;3.00;2.47;;;21.20;70.20;;;;;;5009941;28;20578;-38
2023/07/24 05:29:01;;;;;;;2.42;2.22;;;20.50;68.20;;;;;;5009856;28;20124;-38
2023/07/24 05:31:28;;;;;;;2.50;2.25;;;;;;;;;;5009363;28;20528;-39
2023/07/24 05:33:55;;;;;;;2.65;2.40;;;20.80;82.80;;;;;;5009374;28;20504;-40
2023/07/24 05:36:21;;;;;;;2.63;2.10;;;20.40;75.90;;;;;;5021281;28;20052;-38
2023/07/24 05:38:48;;;;;;;2.70;2.40;;;20.90;78.00;;;;;;5020941;28;20050;-38
2023/07/24 05:41:15;;;;;;;2.40;2.10;;;20.30;82.60;;;;;;5018956;28;20123;-40
2023/07/24 05:43:43;;;;;;;2.85;2.20;;;21.10;70.30;;;;;;5018970;28;20549;-37
2023/07/24 05:46:10;;;;;;;3.38;3.00;;;20.60;71.30;;;;;;5020416;28;20049;-36
2023/07/24 05:48:36;;;;;;;2.60;2.40;;;20.80;82.50;;;;;;5016286;28;20124;-36
2023/07/24 05:51:03;;;;;;;2.78;2.47;;;;;;;;;;5019909;28;20117;-39
2023/07/24 05:53:30;;;;;;;2.80;2.35;;;21.60;75.00;;;;;;5018242;28;20137;-34
2023/07/24 05:55:58;;;;;;;3.63;2.65;;;20.50;81.90;;;;;;5019998;28;20052;-32
2023/07/24 05:58:25;;;;;;;3.20;2.50;;;21.30;82.50;;;;;;5017714;28;20060;-32
2023/07/24 06:00:54;;;;;;;3.25;2.53;;;20.70;66.00;;;;;;5009512;28;20132;-35
2023/07/24 06:03:21;;;;;;;2.88;2.50;;;20.90;83.00;;;;;;5009371;28;20440;-33
2023/07/24 06:05:51;;;;;;;3.38;2.40;;;20.90;82.20;;;;;;5010731;28;20133;-32
2023/07/24 06:08:17;;;;;;;3.10;2.45;;;20.70;82.10;;;;;;5009869;28;20060;-32
2023/07/24 06:10:44;;;;;;;3.75;2.40;;;20.40;82.00;;;;;;5009748;28;20125;-32
2023/07/24 06:13:11;;;;;;;3.47;2.42;;;21.10;78.30;;;;;;5008962;28;20058;-33
2023/07/24 06:15:38;;;;;;;3.67;2.90;;;;;;;;;;5013447;28;20056;-32
2023/07/24 06:18:06;;;;;;;3.45;2.63;;;20.70;66.10;;;;;;5018734;28;20138;-35
2023/07/24 06:20:33;;;;;;;3.92;2.70;;;;;;;;;;5019070;28;20050;-35
2023/07/24 06:22:59;;;;;;;3.55;2.67;;;20.50;82.40;;;;;;5017343;28;20061;-32
2023/07/24 06:25:26;;;;;;;3.20;2.60;;;20.40;81.90;;;;;;5017784;28;20499;-32
2023/07/24 06:27:53;;;;;;;3.35;2.65;;;;;;;;;;5020021;28;20431;-32
2023/07/24 06:30:20;;;;;;;2.90;2.38;;;20.70;82.10;;;;;;5022627;28;20052;-31
2023/07/24 06:32:47;;;;;;;4.03;2.50;;;;;;;;;;5016855;28;20206;-34
2023/07/24 06:35:15;;;;;;;3.20;2.65;;;21.10;82.20;;;;;;5016728;28;20077;-31
2023/07/24 06:37:42;;;;;;;2.63;2.38;;;20.40;81.70;;;;;;5017900;28;20129;-32
2023/07/24 06:40:10;;;;;;;3.55;2.90;;;20.70;66.00;;;;;;5015080;28;20046;-33
2023/07/24 06:42:36;;;;;;;3.72;2.70;;;20.60;82.70;;;;;;5017493;28;20077;-31
2023/07/24 06:45:04;;;;;;;4.13;2.92;;;;;;;;;;5017284;28;20125;-33
2023/07/24 06:47:30;;;;;;;3.03;2.55;;;21.10;76.80;;;;;;5016765;28;20513;-31
2023/07/24 06:49:57;;;;;;;3.75;3.15;;;20.80;75.70;;;;;;5019370;28;20041;-31
2023/07/24 06:52:25;;;;;;;3.70;2.45;;;21.10;70.00;;;;;;5025050;28;20581;-32
2023/07/24 06:54:52;;;;;;;3.30;2.80;;;20.60;67.80;;;;;;5026996;28;20059;-33
2023/07/24 06:57:18;;;;;;;3.47;2.70;;;20.00;81.70;;;;;;5008993;28;20058;-32
2023/07/24 06:59:45;;;;;;;3.55;2.75;;;21.10;82.00;;;;;;5008944;28;20129;-31
2023/07/24 07:02:12;;;;;;;4.35;2.83;;;;;;;;;;5024646;28;20417;-33
2023/07/24 07:04:39;;;;;;;4.03;3.00;;;;;;;;;;5028682;28;20454;-31
2023/07/24 07:07:06;;;;;;;3.53;2.90;;;;;;;;;;5028579;28;20152;-34
2023/07/24 07:09:34;;;;;;;3.70;3.13;;;21.20;82.40;;;;;;5028793;28;20137;-31
2023/07/24 07:12:01;;;;;;;3.00;2.70;;;;;;;;;;5026695;28;20046;-39
2023/07/24 07:14:29;;;;;;;3.83;2.95;;;;;;;;;;5028365;28;20076;-35
2023/07/24 07:16:56;;;;;;;2.90;2.60;;;20.30;82.20;;;;;;5028346;28;20577;-31
2023/07/24 07:19:23;;;;;;;3.70;2.75;;;;;;;;;;5028272;28;20132;-34
2023/07/24 07:21:49;;;;;;;3.63;2.85;;;21.70;82.40;;;;;;5028385;28;20060;-36
2023/07/24 07:24:16;;;;;;;3.88;2.92;;;20.60;81.50;;;;;;5026872;28;20049;-37
2023/07/24 07:26:44;;;;;;;4.10;2.85;;;20.80;66.00;;;;;;5027979;28;20046;-36
2023/07/24 07:29:12;;;;;;;3.45;2.58;;;;;;;;;;5020141;28;20045;-36
2023/07/24 07:31:38;;;;;;;3.72;2.80;;;20.60;81.40;;;;;;5022045;28;20136;-35
2023/07/24 07:34:05;;;;;;;4.20;2.85;;;21.00;70.80;;;;;;5011102;28;20140;-36
2023/07/24 07:36:32;;;;;;;4.93;2.60;;;21.00;82.00;;;;;;5015518;28;20557;-38
2023/07/24 07:38:59;;;;;;;4.50;2.90;;;20.70;81.50;;;;;;5020484;28;20182;-39
2023/07/24 07:41:25;;;;;;;3.17;2.72;;;21.10;70.40;;;;;;5019946;28;20407;-36
2023/07/24 07:43:54;;;;;;;3.83;2.92;;;21.10;81.70;;;;;;5021171;28;20132;-37
2023/07/24 07:46:21;;;;;;;3.75;3.20;;;;;;;;;;5019720;28;20045;-39
2023/07/24 07:48:49;;;;;;;2.97;2.60;;;;;;;;;;5020738;28;20046;-35
2023/07/24 07:51:16;;;;;;;5.10;2.97;;;;;;;;;;5025526;28;20484;-36
2023/07/24 07:53:42;;;;;;;5.15;2.90;;;21.20;82.20;;;;;;5031253;28;20049;-38
2023/07/24 07:56:09;;;;;;;4.25;3.10;;;20.60;82.00;;;;;;5031403;28;20140;-40
2023/07/24 07:58:36;;;;;;;4.03;3.33;;;;;;;;;;5031361;28;20128;-36
2023/07/24 08:01:06;;;;;;;4.55;3.08;;;21.00;81.80;;;;;;5031602;28;20132;-40
2023/07/24 08:03:33;;;;;;;4.00;2.72;;;21.20;81.90;;;;;;5026645;28;20049;-38
2023/07/24 08:05:59;;;;;;;3.85;2.70;;;20.80;82.00;;;;;;5013344;28;20133;-38
2023/07/24 08:08:26;;;;;;;4.65;2.92;;;;;;;;;;5011365;28;20054;-37
2023/07/24 08:10:53;;;;;;;3.13;2.63;;;21.50;82.90;;;;;;5011622;28;20124;-40
2023/07/24 08:13:20;;;;;;;4.50;3.17;;;21.00;82.20;;;;;;5013739;28;20121;-37
2023/07/24 08:15:46;;;;;;;3.70;2.90;;;21.40;79.00;;;;;;5013911;28;20124;-37
2023/07/24 08:18:14;;;;;;;3.40;2.83;;;20.60;81.90;;;;;;5011177;28;20128;-36
2023/07/24 08:20:41;;;;;;;3.83;2.55;;;21.10;81.90;;;;;;5023604;28;20149;-38
2023/07/24 08:23:08;;;;;;;6.38;2.92;;;;;;;;;;5029892;28;20045;-36
2023/07/24 08:25:35;;;;;;;3.47;2.85;;;20.80;82.10;;;;;;5030769;28;20059;-39
2023/07/24 08:28:02;;;;;;;3.35;2.92;;;22.00;82.80;;;;;;5030596;28;20477;-37
2023/07/24 08:30:28;;;;;;;3.83;2.78;;;21.10;82.60;;;;;;5031038;28;20055;-39
2023/07/24 08:32:56;;;;;;;3.33;2.90;;;21.30;80.90;;;;;;5030783;28;20048;-34
2023/07/24 08:35:24;;;;;;;3.63;2.80;;;21.00;79.00;;;;;;5030720;28;20129;-38
2023/07/24 08:37:51;;;;;;;6.38;2.67;;;21.10;79.20;;;;;;5029275;28;20050;-37
2023/07/24 08:40:18;;;;;;;6.03;3.22;;;21.40;79.90;;;;;;5030338;28;20049;-36
2023/07/24 08:42:45;;;;;;;3.83;3.05;;;21.10;82.20;;;;;;5030281;28;20061;-36
2023/07/24 08:45:12;;;;;;;5.47;3.05;;;21.70;74.80;;;;;;5029366;28;20410;-35
2023/07/24 08:47:40;;;;;;;3.88;2.83;;;;;;;;;;5022722;28;20391;-37
2023/07/24 08:50:09;;;;;;;4.63;3.08;;;21.10;82.30;;;;;;5028126;28;20098;-38
2023/07/24 08:52:37;;;;;;;3.78;2.63;;;21.10;66.50;;;;;;5028185;28;20561;-35
2023/07/24 08:55:05;;;;;;;5.13;3.10;;;21.20;82.50;;;;;;5014441;28;20562;-39
2023/07/24 08:57:32;;;;;;;5.85;3.00;;;;;;;;;;5010647;28;20060;-36
2023/07/24 09:00:04;;;;;;;4.78;2.97;;;;;;;;;;5010760;28;20056;-40
2023/07/24 09:02:31;;;;;;;5.10;2.90;;;20.90;81.70;;;;;;5009649;28;20552;-39
2023/07/24 09:04:58;;;;;;;4.90;2.92;;;;;;;;;;5009881;28;20049;-36
2023/07/24 09:07:25;;;;;;;5.63;3.40;;;20.20;81.00;;;;;;5010168;28;20050;-36
2023/07/24 09:09:53;;;;;;;4.20;3.20;;;21.30;66.20;;;;;;5009791;28;20125;-36
2023/07/24 09:12:20;;;;;;;3.53;2.90;;;;;;;;;;5018950;28;20129;-34
2023/07/24 09:14:47;;;;;;;7.22;2.90;;;21.40;81.60;;;;;;5020630;28;20125;-39
2023/07/24 09:17:14;;;;;;;3.85;3.00;;;;;;;;;;5018785;28;20448;-37
2023/07/24 09:19:41;;;;;;;4.15;2.80;;;21.50;81.30;;;;;;5020305;28;20050;-36
2023/07/24 09:22:12;;;;;;;4.80;2.60;;;21.40;80.80;;;;;;5022750;28;20046;-35
2023/07/24 09:24:39;;;;;;;4.10;2.80;;;;;;;;;;5009272;28;20050;-33
2023/07/24 09:27:08;;;;;;;4.05;2.63;;;21.20;81.00;;;;;;5009134;28;20048;-42
2023/07/24 09:29:35;;;;;;;3.67;3.10;;;;;;;;;;5009655;28;20046;-36
2023/07/24 09:32:02;;;;;;;2.80;2.50;;;21.40;72.20;;;;;;5008819;28;20053;-37
2023/07/24 09:34:29;;;;;;;4.05;2.97;;;21.70;65.70;;;;;;5008821;28;20145;-35
2023/07/24 09:36:55;;;;;;;5.25;2.92;;;21.70;80.80;;;;;;5015588;28;20125;-37
2023/07/24 09:39:25;;;;;;;4.68;2.72;;;21.80;81.20;;;;;;5017519;28;20041;-38
2023/07/24 09:41:52;;;;;;;4.32;2.75;;;20.40;80.30;;;;;;5014021;28;20045;-37
2023/07/24 09:44:20;;;;;;;3.70;2.67;;;21.40;65.60;;;;;;5026956;27;20124;-36
2023/07/24 09:46:47;;;;;;;4.05;2.80;;;;;;;;;;5009606;28;20056;-37
2023/07/24 09:49:14;;;;;;;3.60;2.80;;;21.10;81.30;;;;;;5009718;28;20049;-38
2023/07/24 09:51:41;;;;;;;4.97;2.85;;;21.90;81.10;;;;;;5008696;28;20058;-37
2023/07/24 09:54:11;;;;;;;4.07;2.80;;;21.90;81.10;;;;;;5009585;28;20099;-40
2023/07/24 09:56:38;;;;;;;3.05;2.72;;;22.50;81.00;;;;;;5009340;28;20133;-37
2023/07/24 09:59:05;;;;;;;3.05;2.55;;;20.80;80.50;;;;;;5009606;28;20632;-38
2023/07/24 10:01:33;;;;;;;3.50;2.55;;;21.20;74.40;;;;;;5009858;28;20050;-40
2023/07/24 10:04:00;;;;;;;4.25;2.80;;;21.40;80.10;;;;;;5009469;28;20247;-40
2023/07/24 10:06:29;;;;;;;3.70;2.90;;;21.30;80.00;;;;;;5009430;28;20517;-39
2023/07/24 10:08:56;;;;;;;3.42;2.78;;;;;;;;;;5009274;28;20073;-37
2023/07/24 10:11:22;;;;;;;4.43;2.90;;;21.80;80.90;;;;;;5009514;28;20046;-38
2023/07/24 10:13:49;;;;;;;3.33;2.70;;;21.90;81.00;;;;;;5009527;28;20049;-36
2023/07/24 10:16:16;;;;;;;5.13;2.67;;;;;;;;;;5013834;28;20124;-37
2023/07/24 10:18:45;;;;;;;3.35;2.50;;;21.60;80.80;;;;;;5028798;28;20087;-38
2023/07/24 10:21:12;;;;;;;5.53;2.83;;;;;;;;;;5019038;28;20050;-36
2023/07/24 10:23:42;;;;;;;3.90;2.67;;;21.40;80.40;;;;;;5009138;28;20100;-40
2023/07/24 10:26:09;;;;;;;3.75;2.75;;;21.10;80.50;;;;;;5009344;28;20589;-39
2023/07/24 10:28:38;;;;;;;3.30;2.70;;;21.70;64.90;;;;;;5007653;28;20085;-37
2023/07/24 10:31:08;;;;;;;4.60;2.60;;;21.40;66.80;;;;;;5008805;28;20083;-37
2023/07/24 10:33:37;;;;;;;4.18;2.80;;;21.70;80.70;;;;;;5008345;28;20095;-38
2023/07/24 10:36:10;;;;;;;3.83;2.90;;;21.80;64.80;;;;;;5025869;28;20521;-38
2023/07/24 10:38:38;;;;;;;3.83;2.90;;;21.90;79.70;;;;;;5007969;28;20054;-36
2023/07/24 10:41:05;;;;;;;4.47;2.92;;;;;;;;;;5008558;28;20533;-35
2023/07/24 10:43:41;;;;;;;4.85;3.20;;;20.90;79.40;;;;;;5009295;28;20073;-38
2023/07/24 10:46:08;;;;;;;3.20;2.70;;;20.80;67.30;;;;;;5009272;28;20050;-33
2023/07/24 10:48:34;;;;;;;3.05;2.75;;;21.50;79.90;;;;;;5009509;28;20060;-35
2023/07/24 10:51:09;;;;;;;3.45;2.70;;;21.40;67.60;;;;;;5013535;28;20133;-38
2023/07/24 10:53:35;;;;;;;3.58;2.85;;;23.00;78.50;;;;;;5015349;28;20046;-40
2023/07/24 10:56:02;;;;;;;4.10;2.72;;;22.00;80.70;;;;;;5026811;28;20053;-38
2023/07/24 10:58:29;;;;;;;3.58;2.88;;;;;;;;;;5024144;28;20133;-35
2023/07/24 11:00:57;;;;;;;3.92;2.90;;;20.90;79.30;;;;;;5009113;28;20088;-39
2023/07/24 11:03:24;;;;;;;3.42;2.70;;;;;;;;;;5008979;28;20053;-33
2023/07/24 11:05:51;;;;;;;3.40;2.70;;;;;;;;;;5008894;28;20054;-33
2023/07/24 11:08:20;;;;;;;3.60;2.75;;;21.80;79.60;;;;;;5010862;28;20054;-32
2023/07/24 11:10:47;;;;;;;4.18;2.90;;;22.10;68.80;;;;;;5027293;28;20437;-32
2023/07/24 11:13:14;;;;;;;5.05;2.75;;;21.70;76.00;;;;;;5022316;28;20052;-33
2023/07/24 11:15:41;;;;;;;3.80;2.70;;;21.70;79.60;;;;;;5022121;28;20050;-34
2023/07/24 11:18:08;;;;;;;3.58;2.85;;;;;;;;;;5031963;28;20084;-38
2023/07/24 11:20:37;;;;;;;3.53;2.80;;;21.60;66.40;;;;;;5031110;28;20053;-34
2023/07/24 11:23:04;;;;;;;3.90;2.80;;;;;;;;;;5018556;28;20117;-35
2023/07/24 11:25:32;;;;;;;5.18;3.08;;;22.40;80.00;;;;;;5022569;28;20050;-32
2023/07/24 11:27:59;;;;;;;3.90;2.78;;;21.60;79.60;;;;;;5022880;28;20077;-34
2023/07/24 11:30:26;;;;;;;3.05;2.72;;;22.30;68.50;;;;;;5022243;28;20514;-33
2023/07/24 11:32:53;;;;;;;3.92;3.10;;;22.50;80.70;;;;;;5019328;28;20073;-32
2023/07/24 11:35:21;;;;;;;3.17;2.42;;;22.70;80.60;;;;;;5016770;28;20944;-33
2023/07/24 11:37:48;;;;;;;5.97;2.80;;;21.80;80.00;;;;;;5022290;28;20459;-41
2023/07/24 11:40:15;;;;;;;3.95;2.80;;;;;;;;;;5019011;28;20128;-40
2023/07/24 11:42:45;;;;;;;3.63;2.72;;;22.30;80.30;;;;;;5020099;28;20105;-41
2023/07/24 11:45:11;;;;;;;3.38;2.67;;;21.20;79.30;;;;;;5019945;28;20050;-41
2023/07/24 11:47:45;;;;;;;3.03;2.63;;;21.80;76.80;;;;;;5022033;28;20081;-41
2023/07/24 11:50:12;;;;;;;2.90;2.50;;;23.10;80.30;;;;;;5031258;28;20136;-40
2023/07/24 11:52:40;;;;;;;2.95;2.65;;;22.90;65.30;;;;;;5031057;28;20045;-39
2023/07/24 11:55:08;;;;;;;3.88;2.60;;;19.80;63.70;;;;;;5024069;28;20056;-38
2023/07/24 11:57:35;;;;;;;4.50;3.35;;;;;;;;;;5014314;28;20072;-36
2023/07/24 12:00:04;;;;;;;3.53;3.03;;;22.60;80.00;;;;;;5011357;28;20149;-41
2023/07/24 12:02:32;;;;;;;3.97;2.53;;;21.70;80.00;;;;;;5011119;28;20507;-40
2023/07/24 12:04:59;;;;;;;3.13;2.55;;;21.90;80.30;;;;;;5017573;28;20172;-41
2023/07/24 12:07:31;;;;;;;3.00;2.60;;;22.30;76.10;;;;;;5016668;28;20558;-40
2023/07/24 12:09:58;;;;;;;4.28;2.85;;;21.50;66.60;;;;;;5018599;28;20054;-41
2023/07/24 12:12:25;;;;;;;4.25;2.78;;;21.70;66.60;;;;;;5009840;28;20111;-40
2023/07/24 12:14:52;;;;;;;4.50;2.72;;;;;;;;;;5009173;28;20589;-38
2023/07/24 12:17:20;;;;;;;3.50;2.70;;;22.60;80.00;;;;;;5009502;28;20459;-41
2023/07/24 12:19:48;;;;;;;2.95;2.58;;;21.80;66.40;;;;;;5010028;28;20049;-40
2023/07/24 12:22:14;;;;;;;3.35;2.75;;;21.90;80.30;;;;;;5010171;28;20150;-40
2023/07/24 12:24:41;;;;;;;3.47;2.70;;;22.50;80.90;;;;;;5026251;28;20042;-39
2023/07/24 12:27:08;;;;;;;5.38;3.08;;;22.80;73.00;;;;;;5030742;28;20402;-41
2023/07/24 12:29:35;;;;;;;3.45;2.50;;;21.20;79.70;;;;;;5030834;28;20049;-40
2023/07/24 12:32:02;;;;;;;3.70;2.70;;;;;;;;;;5030853;28;20585;-38
2023/07/24 12:34:30;;;;;;;3.65;2.90;;;22.00;79.80;;;;;;5030593;28;20459;-40
2023/07/24 12:36:56;;;;;;;4.85;2.78;;;22.00;79.90;;;;;;5030368;28;20203;-41
2023/07/24 12:39:23;;;;;;;4.57;3.03;;;21.60;79.80;;;;;;5030479;28;20080;-41
2023/07/24 12:41:50;;;;;;;4.10;2.90;;;;;;;;;;5012491;28;20050;-36
2023/07/24 12:44:17;;;;;;;4.28;2.97;;;21.70;80.50;;;;;;5010688;28;20049;-39
2023/07/24 12:46:44;;;;;;;3.45;2.80;;;;;;;;;;5011151;28;20128;-32
2023/07/24 12:49:11;;;;;;;3.67;2.70;;;22.00;77.90;;;;;;5010907;28;20046;-32
2023/07/24 12:51:39;;;;;;;3.20;2.80;;;21.80;73.30;;;;;;5010660;28;20062;-32
2023/07/24 12:54:06;;;;;;;3.58;2.88;;;;;;;;;;5010634;28;20128;-32
2023/07/24 12:56:33;;;;;;;3.38;2.80;;;21.80;73.60;;;;;;5014996;28;20053;-32
2023/07/24 12:59:00;;;;;;;3.67;2.80;;;;;;;;;;5030595;28;20132;-33
2023/07/24 13:01:28;;;;;;;3.35;2.67;;;;;;;;;;5030412;28;20573;-38
2023/07/24 13:03:55;;;;;;;3.53;2.67;;;;;;;;;;5030015;28;20042;-39
2023/07/24 13:06:22;;;;;;;4.50;2.70;;;21.10;80.20;;;;;;5029974;28;20134;-40
2023/07/24 13:08:50;;;;;;;3.53;2.70;;;22.70;80.30;;;;;;5030234;28;20084;-40
2023/07/24 13:11:17;;;;;;;3.58;2.85;;;22.50;80.20;;;;;;5030372;28;20125;-41